createdAt,value
2018-05-24T00:02:07.146Z,99.90
2018-05-24T00:04:33.588Z,99.90
2018-05-24T00:07:00.069Z,99.90
2018-05-24T00:09:26.235Z,99.90
2018-05-24T00:11:52.418Z,99.90
2018-05-24T00:14:19.716Z,99.90
2018-05-24T00:16:45.892Z,99.90
2018-05-24T00:19:12.055Z,99.90
2018-05-24T00:21:38.242Z,99.90
2018-05-24T00:24:04.414Z,99.90
2018-05-24T00:26:30.639Z,99.90
2018-05-24T00:28:56.818Z,99.90
2018-05-24T00:31:22.979Z,99.90
2018-05-24T00:33:49.174Z,99.90
2018-05-24T00:36:15.689Z,99.90
2018-05-24T00:38:42.164Z,99.90
2018-05-24T00:41:08.639Z,99.90
2018-05-24T00:43:34.831Z,99.90
2018-05-24T00:46:01.064Z,99.90
2018-05-24T00:48:27.218Z,99.90
2018-05-24T00:50:53.400Z,99.90
2018-05-24T00:53:19.570Z,99.90
2018-05-24T00:58:13.659Z,99.90
2018-05-24T01:00:40.190Z,99.90
2018-05-24T01:03:06.391Z,99.90
2018-05-24T01:05:32.579Z,99.90
2018-05-24T01:07:58.748Z,99.90
2018-05-24T01:10:24.920Z,99.90
2018-05-24T01:12:51.114Z,99.90
2018-05-24T01:15:17.286Z,99.90
2018-05-24T01:20:11.381Z,99.90
2018-05-24T01:22:37.549Z,99.90
2018-05-24T01:27:31.623Z,99.90
2018-05-24T01:29:57.822Z,99.90
2018-05-24T01:32:23.994Z,99.90
2018-05-24T01:34:50.539Z,99.90
2018-05-24T01:37:29.248Z,99.90
2018-05-24T01:39:55.878Z,99.90
2018-05-24T01:42:22.446Z,99.90
2018-05-24T01:44:48.961Z,99.90
2018-05-24T01:47:15.558Z,99.90
2018-05-24T01:49:42.047Z,99.90
2018-05-24T01:52:08.537Z,99.90
2018-05-24T01:54:34.721Z,99.90
2018-05-24T01:57:00.878Z,99.90
2018-05-24T01:59:27.043Z,99.90
2018-05-24T02:01:54.336Z,99.90
2018-05-24T02:04:20.494Z,99.90
2018-05-24T02:06:46.673Z,99.90
2018-05-24T02:09:12.867Z,99.90
2018-05-24T02:11:39.031Z,99.90
2018-05-24T02:14:05.215Z,99.90
2018-05-24T02:16:32.597Z,99.90
2018-05-24T02:18:58.750Z,99.90
2018-05-24T02:21:24.914Z,99.90
2018-05-24T02:23:51.098Z,99.90
2018-05-24T02:26:17.254Z,99.90
2018-05-24T02:28:43.406Z,99.90
2018-05-24T02:31:09.586Z,99.90
2018-05-24T02:33:35.742Z,99.90
2018-05-24T02:36:01.982Z,99.90
2018-05-24T02:38:28.120Z,99.90
2018-05-24T02:40:54.299Z,99.90
2018-05-24T02:43:20.461Z,99.90
2018-05-24T02:45:46.647Z,99.90
2018-05-24T02:48:12.835Z,99.90
2018-05-24T02:50:38.999Z,99.90
2018-05-24T02:53:05.192Z,99.90
2018-05-24T02:55:31.378Z,99.90
2018-05-24T02:57:57.546Z,99.90
2018-05-24T03:00:23.742Z,99.90
2018-05-24T03:02:49.904Z,99.90
2018-05-24T03:05:16.122Z,99.90
2018-05-24T03:07:42.324Z,99.90
2018-05-24T03:10:09.630Z,99.90
2018-05-24T03:12:35.861Z,99.90
2018-05-24T03:15:02.006Z,99.90
2018-05-24T03:17:28.194Z,99.90
2018-05-24T03:19:54.362Z,99.90
2018-05-24T03:22:20.530Z,99.90
2018-05-24T03:24:46.682Z,99.90
2018-05-24T03:27:12.866Z,99.90
2018-05-24T03:29:40.542Z,99.90
2018-05-24T03:32:07.809Z,99.90
2018-05-24T03:34:33.982Z,99.90
2018-05-24T03:37:00.154Z,99.90
2018-05-24T03:39:26.342Z,99.90
2018-05-24T03:44:21.507Z,99.90
2018-05-24T03:46:47.702Z,99.90
2018-05-24T03:49:13.880Z,99.90
2018-05-24T03:51:40.051Z,99.90
2018-05-24T03:54:06.202Z,99.90
2018-05-24T03:56:32.366Z,99.90
2018-05-24T03:59:07.390Z,99.90
2018-05-24T04:01:45.857Z,99.90
2018-05-24T04:04:25.405Z,99.90
2018-05-24T04:06:51.534Z,99.90
2018-05-24T04:09:17.703Z,99.90
2018-05-24T04:11:43.959Z,99.90
2018-05-24T04:14:10.127Z,99.90
2018-05-24T04:16:36.288Z,99.90
2018-05-24T04:19:02.470Z,99.90
2018-05-24T04:21:28.856Z,99.90
2018-05-24T04:23:56.221Z,99.90
2018-05-24T04:26:22.428Z,99.90
2018-05-24T04:28:48.596Z,99.90
2018-05-24T04:31:14.759Z,99.90
2018-05-24T04:33:40.934Z,99.90
2018-05-24T04:36:08.303Z,99.90
2018-05-24T04:38:35.954Z,99.90
2018-05-24T04:41:02.126Z,99.90
2018-05-24T04:43:28.306Z,99.90
2018-05-24T04:45:54.473Z,99.90
2018-05-24T04:48:20.679Z,99.90
2018-05-24T04:50:46.842Z,99.90
2018-05-24T04:53:13.019Z,99.90
2018-05-24T04:55:40.310Z,99.90
2018-05-24T04:58:06.468Z,99.90
2018-05-24T05:00:33.454Z,99.90
2018-05-24T05:03:00.800Z,99.90
2018-05-24T05:05:26.971Z,99.90
2018-05-24T05:07:53.320Z,99.90
2018-05-24T05:10:19.570Z,99.90
2018-05-24T05:12:46.880Z,99.90
2018-05-24T05:15:13.037Z,99.90
2018-05-24T05:17:39.344Z,99.90
2018-05-24T05:20:05.507Z,99.90
2018-05-24T05:22:31.718Z,99.90
2018-05-24T05:24:59.067Z,99.90
2018-05-24T05:27:25.254Z,99.90
2018-05-24T05:29:51.476Z,99.90
2018-05-24T05:32:17.688Z,99.90
2018-05-24T05:34:43.923Z,99.90
2018-05-24T05:37:10.181Z,99.90
2018-05-24T05:39:37.491Z,99.90
2018-05-24T05:42:03.915Z,99.90
2018-05-24T05:44:30.282Z,99.90
2018-05-24T05:46:56.462Z,99.90
2018-05-24T05:49:22.634Z,99.90
2018-05-24T05:51:48.812Z,99.90
2018-05-24T05:54:14.991Z,99.90
2018-05-24T05:56:41.350Z,99.90
2018-05-24T05:59:07.526Z,99.90
2018-05-24T06:01:34.120Z,99.90
2018-05-24T06:04:00.247Z,99.90
2018-05-24T06:06:26.431Z,99.90
2018-05-24T06:08:52.711Z,99.90
2018-05-24T06:11:18.875Z,99.90
2018-05-24T06:13:45.164Z,99.90
2018-05-24T06:16:11.335Z,99.90
2018-05-24T06:18:37.575Z,99.90
2018-05-24T06:21:04.005Z,99.90
2018-05-24T06:23:30.197Z,99.90
2018-05-24T06:25:56.397Z,99.90
2018-05-24T06:28:22.851Z,99.90
2018-05-24T06:30:48.989Z,99.90
2018-05-24T06:33:15.161Z,99.90
2018-05-24T06:35:41.370Z,99.90
2018-05-24T06:38:07.580Z,99.90
2018-05-24T06:40:33.851Z,99.90
2018-05-24T06:43:00.014Z,99.90
2018-05-24T06:45:26.206Z,99.90
2018-05-24T06:47:52.573Z,99.90
2018-05-24T06:50:18.748Z,99.90
2018-05-24T06:52:45.072Z,99.90
2018-05-24T06:55:11.254Z,99.90
2018-05-24T06:57:38.530Z,99.90
2018-05-24T07:00:06.532Z,99.90
2018-05-24T07:02:32.694Z,99.90
2018-05-24T07:04:58.865Z,99.90
2018-05-24T07:07:25.040Z,99.90
2018-05-24T07:09:51.258Z,99.90
2018-05-24T07:12:18.535Z,99.90
2018-05-24T07:14:45.814Z,99.90
2018-05-24T07:17:11.979Z,99.90
2018-05-24T07:19:38.158Z,99.90
2018-05-24T07:22:04.342Z,99.90
2018-05-24T07:24:30.590Z,99.90
2018-05-24T07:26:56.709Z,99.90
2018-05-24T07:29:22.896Z,99.90
2018-05-24T07:31:49.074Z,99.90
2018-05-24T07:34:16.418Z,99.90
2018-05-24T07:36:42.602Z,99.90
2018-05-24T07:39:08.767Z,99.90
2018-05-24T07:41:34.935Z,99.90
2018-05-24T07:44:01.145Z,99.90
2018-05-24T07:46:27.317Z,99.90
2018-05-24T07:48:53.481Z,99.90
2018-05-24T07:51:20.777Z,99.90
2018-05-24T07:53:46.961Z,99.90
2018-05-24T07:56:13.135Z,99.90
2018-05-24T07:58:40.461Z,99.90
2018-05-24T08:01:06.647Z,99.90
2018-05-24T08:08:28.646Z,99.90
2018-05-24T08:10:54.826Z,99.90
2018-05-24T08:13:21.009Z,99.90
2018-05-24T08:15:47.174Z,99.90
2018-05-24T08:18:13.363Z,99.90
2018-05-24T08:20:39.554Z,99.90
2018-05-24T08:23:06.871Z,99.90
2018-05-24T08:25:33.267Z,99.90
2018-05-24T08:27:59.650Z,99.90
2018-05-24T08:30:25.822Z,99.90
2018-05-24T08:32:52.010Z,99.90
2018-05-24T08:35:18.182Z,99.90
2018-05-24T08:37:44.436Z,99.90
2018-05-24T08:40:10.626Z,99.90
2018-05-24T08:42:36.850Z,99.90
2018-05-24T08:45:03.071Z,99.90
2018-05-24T08:47:30.058Z,99.90
2018-05-24T08:49:56.142Z,99.90
2018-05-24T08:52:22.314Z,99.90
2018-05-24T08:54:49.618Z,99.90
2018-05-24T08:57:15.781Z,99.90
2018-05-24T08:59:41.961Z,99.90
2018-05-24T09:02:08.166Z,99.90
2018-05-24T09:04:34.331Z,99.90
2018-05-24T09:07:00.502Z,99.90
2018-05-24T09:09:27.808Z,99.90
2018-05-24T09:11:53.973Z,99.90
2018-05-24T09:14:20.250Z,99.90
2018-05-24T09:16:47.555Z,99.90
2018-05-24T09:19:13.714Z,99.90
2018-05-24T09:21:39.887Z,99.90
2018-05-24T09:24:07.199Z,99.90
2018-05-24T09:26:33.379Z,99.90
2018-05-24T09:28:59.546Z,99.90
2018-05-24T09:31:25.908Z,99.90
2018-05-24T09:33:52.140Z,99.90
2018-05-24T09:36:18.354Z,99.90
2018-05-24T09:38:44.478Z,99.90
2018-05-24T09:41:11.010Z,99.90
2018-05-24T09:43:37.223Z,99.90
2018-05-24T09:46:03.562Z,99.90
2018-05-24T09:48:29.916Z,99.90
2018-05-24T09:50:57.078Z,99.90
2018-05-24T09:53:23.322Z,99.90
2018-05-24T09:55:49.489Z,99.90
2018-05-24T09:58:15.711Z,99.90
2018-05-24T10:00:41.899Z,99.90
2018-05-24T10:03:08.067Z,99.90
2018-05-24T10:05:34.241Z,99.90
2018-05-24T10:08:02.084Z,99.90
2018-05-24T10:10:28.961Z,99.90
2018-05-24T10:12:55.214Z,99.90
2018-05-24T10:15:21.383Z,99.90
2018-05-24T10:17:47.553Z,99.90
2018-05-24T10:20:14.859Z,99.90
2018-05-24T10:22:41.046Z,99.90
2018-05-24T10:25:07.329Z,99.90
2018-05-24T10:27:33.498Z,99.90
2018-05-24T10:29:59.707Z,99.90
2018-05-24T10:32:25.871Z,99.90
2018-05-24T10:34:52.125Z,99.90
2018-05-24T10:37:18.309Z,99.90
2018-05-24T10:39:45.578Z,99.90
2018-05-24T10:42:11.738Z,99.90
2018-05-24T10:44:37.936Z,99.90
2018-05-24T10:47:04.127Z,99.90
2018-05-24T10:49:30.298Z,99.90
2018-05-24T10:51:56.459Z,99.90
2018-05-24T10:54:22.638Z,99.90
2018-05-24T10:56:48.857Z,99.90
2018-05-24T10:59:16.143Z,99.90
2018-05-24T11:01:42.336Z,99.90
2018-05-24T11:04:08.511Z,99.90
2018-05-24T11:06:35.809Z,99.90
2018-05-24T11:09:02.007Z,99.90
2018-05-24T11:11:29.409Z,99.90
2018-05-24T11:13:55.587Z,99.90
2018-05-24T11:16:21.754Z,99.90
2018-05-24T11:18:47.974Z,99.90
2018-05-24T11:21:14.133Z,99.90
2018-05-24T11:23:40.301Z,99.90
2018-05-24T11:26:06.453Z,99.90
2018-05-24T11:28:32.643Z,99.90
2018-05-24T11:30:58.798Z,99.90
2018-05-24T11:33:24.970Z,99.90
2018-05-24T11:35:51.166Z,99.90
2018-05-24T11:38:17.351Z,99.90
2018-05-24T11:40:43.528Z,99.90
2018-05-24T11:43:09.794Z,99.90
2018-05-24T11:45:35.982Z,99.90
2018-05-24T11:48:02.147Z,99.90
2018-05-24T11:50:28.338Z,99.90
2018-05-24T11:55:22.418Z,99.90
2018-05-24T11:57:48.635Z,99.90
2018-05-24T12:00:14.805Z,99.90
2018-05-24T12:02:40.982Z,99.90
2018-05-24T12:05:08.283Z,97.70
2018-05-24T12:07:34.467Z,97.80
2018-05-24T12:10:01.771Z,97.70
2018-05-24T12:12:27.954Z,97.80
2018-05-24T12:14:54.130Z,98.00
2018-05-24T12:17:21.435Z,98.00
2018-05-24T12:19:47.614Z,98.50
2018-05-24T12:22:13.810Z,98.10
2018-05-24T12:24:39.966Z,98.50
2018-05-24T12:27:06.160Z,99.10
2018-05-24T12:29:33.077Z,98.70
2018-05-24T12:31:59.242Z,98.70
2018-05-24T12:34:25.430Z,98.50
2018-05-24T12:36:51.590Z,98.30
2018-05-24T12:39:17.749Z,98.00
2018-05-24T12:41:43.991Z,97.60
2018-05-24T12:44:10.113Z,96.00
2018-05-24T12:46:36.269Z,95.80
2018-05-24T12:49:02.508Z,95.70
2018-05-24T12:51:28.655Z,95.60
2018-05-24T12:53:57.459Z,95.80
2018-05-24T12:56:26.180Z,96.50
2018-05-24T12:58:54.873Z,97.10
2018-05-24T13:01:22.411Z,97.10
2018-05-24T13:03:48.873Z,97.50
2018-05-24T13:08:43.570Z,96.80
2018-05-24T13:11:10.709Z,96.80
2018-05-24T13:13:37.383Z,96.70
2018-05-24T13:16:05.218Z,96.20
2018-05-24T13:18:32.321Z,96.40
2018-05-24T13:20:58.643Z,96.80
2018-05-24T13:23:25.279Z,96.80
2018-05-24T13:25:51.468Z,96.80
2018-05-24T13:28:17.989Z,96.60
2018-05-24T13:30:44.644Z,96.40
2018-05-24T13:33:11.948Z,96.20
2018-05-24T13:35:38.428Z,95.10
2018-05-24T13:38:06.160Z,94.50
2018-05-24T13:40:32.702Z,94.60
2018-05-24T13:42:58.896Z,94.60
2018-05-24T13:45:25.061Z,94.70
2018-05-24T13:47:52.018Z,94.90
2018-05-24T13:50:18.231Z,95.10
2018-05-24T13:52:44.453Z,95.00
2018-05-24T13:55:10.610Z,95.20
2018-05-24T13:57:42.646Z,95.10
2018-05-24T14:00:08.810Z,95.20
2018-05-24T14:02:35.139Z,95.30
2018-05-24T14:05:01.295Z,96.20
2018-05-24T14:07:27.477Z,96.40
2018-05-24T14:09:54.414Z,96.70
2018-05-24T14:12:20.565Z,97.30
2018-05-24T14:14:47.857Z,95.70
2018-05-24T14:17:14.086Z,95.80
2018-05-24T14:19:41.378Z,94.80
2018-05-24T14:22:07.554Z,94.90
2018-05-24T14:24:33.710Z,95.00
2018-05-24T14:26:59.867Z,95.20
2018-05-24T14:29:27.153Z,95.90
2018-05-24T14:31:53.330Z,96.20
2018-05-24T14:34:19.512Z,96.40
2018-05-24T14:36:46.808Z,98.00
2018-05-24T14:39:13.022Z,98.50
2018-05-24T14:41:40.305Z,98.50
2018-05-24T14:44:06.494Z,98.60
2018-05-24T14:46:32.706Z,99.10
2018-05-24T14:48:58.882Z,99.20
2018-05-24T14:51:25.102Z,98.90
2018-05-24T14:53:51.332Z,99.20
2018-05-24T14:56:34.468Z,99.00
2018-05-24T14:59:02.445Z,98.50
2018-05-24T15:01:35.366Z,98.30
2018-05-24T15:04:01.558Z,98.60
2018-05-24T15:06:28.822Z,98.20
2018-05-24T15:08:56.246Z,98.00
2018-05-24T15:11:22.432Z,98.50
2018-05-24T15:13:50.541Z,97.50
2018-05-24T15:16:16.742Z,97.70
2018-05-24T15:18:42.918Z,97.80
2018-05-24T15:21:09.119Z,98.00
2018-05-24T15:23:35.330Z,98.10
2018-05-24T15:26:03.232Z,98.30
2018-05-24T15:28:31.171Z,98.70
2018-05-24T15:30:57.425Z,98.30
2018-05-24T15:33:24.030Z,98.50
2018-05-24T15:35:50.602Z,98.10
2018-05-24T15:38:17.158Z,98.00
2018-05-24T15:40:45.489Z,97.80
2018-05-24T15:45:39.615Z,98.10
2018-05-24T15:48:05.799Z,98.10
2018-05-24T15:50:32.154Z,98.50
2018-05-24T15:52:58.390Z,98.70
2018-05-24T15:55:24.572Z,98.80
2018-05-24T15:57:50.829Z,99.00
2018-05-24T16:00:17.001Z,99.30
2018-05-24T16:02:44.379Z,99.00
2018-05-24T16:05:10.598Z,99.50
2018-05-24T16:07:36.854Z,99.70
2018-05-24T16:10:04.158Z,99.30
2018-05-24T16:12:30.329Z,99.70
2018-05-24T16:14:56.607Z,99.70
2018-05-24T16:17:22.794Z,99.70
2018-05-24T16:19:49.000Z,99.70
2018-05-24T16:22:15.171Z,99.60
2018-05-24T16:24:41.335Z,99.80
2018-05-24T16:27:07.520Z,99.80
2018-05-24T16:29:33.686Z,99.80
2018-05-24T16:31:59.854Z,99.80
2018-05-24T16:34:26.072Z,99.80
2018-05-24T16:36:52.253Z,99.90
2018-05-24T16:39:19.253Z,99.90
2018-05-24T16:41:45.596Z,99.90
2018-05-24T16:44:11.781Z,99.90
2018-05-24T16:46:38.082Z,99.90
2018-05-24T16:49:04.354Z,99.90
2018-05-24T16:51:30.555Z,99.90
2018-05-24T16:53:56.779Z,99.90
2018-05-24T16:56:23.155Z,99.90
2018-05-24T16:58:49.504Z,99.90
2018-05-24T17:01:15.808Z,99.90
2018-05-24T17:03:42.040Z,99.90
2018-05-24T17:06:09.331Z,99.90
2018-05-24T17:08:35.601Z,99.90
2018-05-24T17:11:01.930Z,99.90
2018-05-24T17:13:28.184Z,99.90
2018-05-24T17:15:54.473Z,99.90
2018-05-24T17:18:21.945Z,99.90
2018-05-24T17:20:49.986Z,99.90
2018-05-24T17:23:16.509Z,99.90
2018-05-24T17:25:43.858Z,99.90
2018-05-24T17:28:10.112Z,99.90
2018-05-24T17:30:36.507Z,99.90
2018-05-24T17:33:02.703Z,99.90
2018-05-24T17:35:28.975Z,99.90
2018-05-24T17:37:55.149Z,99.90
2018-05-24T17:40:22.174Z,99.90
2018-05-24T17:42:48.371Z,99.90
2018-05-24T17:45:14.599Z,99.90
2018-05-24T17:47:40.849Z,99.90
2018-05-24T17:50:08.143Z,99.90
2018-05-24T17:52:34.310Z,99.90
2018-05-24T17:55:00.535Z,99.90
2018-05-24T17:57:26.702Z,99.90
2018-05-24T17:59:53.054Z,99.90
2018-05-24T18:02:19.253Z,99.90
2018-05-24T18:04:45.402Z,99.90
2018-05-24T18:07:11.579Z,99.90
2018-05-24T18:09:37.831Z,99.90
2018-05-24T18:12:03.942Z,99.90
2018-05-24T18:14:30.186Z,99.90
2018-05-24T18:16:56.390Z,99.90
2018-05-24T18:19:22.549Z,99.90
2018-05-24T18:21:48.730Z,99.90
2018-05-24T18:24:15.018Z,99.90
2018-05-24T18:26:41.201Z,99.90
2018-05-24T18:29:07.556Z,99.90
2018-05-24T18:31:33.767Z,99.90
2018-05-24T18:34:00.034Z,99.90
2018-05-24T18:36:26.251Z,99.90
2018-05-24T18:38:52.455Z,99.90
2018-05-24T18:41:18.631Z,99.90
2018-05-24T18:43:44.806Z,99.90
2018-05-24T18:46:11.202Z,99.90
2018-05-24T18:48:37.543Z,99.90
2018-05-24T18:51:03.723Z,99.90
2018-05-24T18:53:30.219Z,99.90
2018-05-24T18:55:56.419Z,99.90
2018-05-24T18:58:22.722Z,99.90
2018-05-24T19:00:49.050Z,99.90
2018-05-24T19:03:15.481Z,99.90
2018-05-24T19:05:41.661Z,99.90
2018-05-24T19:08:07.918Z,99.90
2018-05-24T19:10:34.512Z,99.90
2018-05-24T19:13:01.798Z,99.90
2018-05-24T19:15:28.104Z,99.90
2018-05-24T19:17:55.697Z,99.90
2018-05-24T19:20:21.955Z,99.90
2018-05-24T19:22:48.313Z,99.90
2018-05-24T19:25:14.635Z,99.90
2018-05-24T19:27:40.869Z,99.90
2018-05-24T19:30:08.164Z,99.90
2018-05-24T19:32:34.494Z,99.90
2018-05-24T19:35:00.931Z,99.90
2018-05-24T19:37:27.239Z,99.90
2018-05-24T19:39:53.509Z,99.90
2018-05-24T19:42:20.922Z,99.90
2018-05-24T19:44:47.422Z,99.90
2018-05-24T19:47:14.717Z,99.90
2018-05-24T19:49:41.039Z,99.90
2018-05-24T19:52:08.333Z,99.90
2018-05-24T19:54:34.502Z,99.90
2018-05-24T19:57:00.888Z,99.90
2018-05-24T19:59:27.098Z,99.90
2018-05-24T20:01:53.271Z,99.90
2018-05-24T20:04:20.587Z,99.90
2018-05-24T20:06:46.782Z,99.90
2018-05-24T20:09:14.054Z,99.90
2018-05-24T20:11:40.499Z,99.90
2018-05-24T20:14:08.413Z,99.90
2018-05-24T20:16:34.694Z,99.90
2018-05-24T20:19:00.880Z,99.90
2018-05-24T20:21:27.103Z,99.90
2018-05-24T20:23:53.303Z,99.90
2018-05-24T20:26:19.659Z,99.90
2018-05-24T20:28:45.887Z,99.90
2018-05-24T20:31:12.070Z,99.90
2018-05-24T20:33:39.365Z,99.90
2018-05-24T20:36:05.567Z,99.90
2018-05-24T20:38:32.857Z,99.90
2018-05-24T20:40:59.338Z,99.90
2018-05-24T20:43:25.577Z,99.90
2018-05-24T20:45:51.746Z,99.90
2018-05-24T20:48:17.954Z,99.90
2018-05-24T20:50:44.146Z,99.90
2018-05-24T20:53:11.443Z,99.90
2018-05-24T20:55:37.792Z,99.90
2018-05-24T20:58:04.054Z,99.90
2018-05-24T21:00:30.238Z,99.90
2018-05-24T21:02:57.526Z,99.90
2018-05-24T21:05:23.711Z,99.90
2018-05-24T21:07:49.904Z,99.90
2018-05-24T21:10:16.073Z,99.90
2018-05-24T21:12:42.287Z,99.90
2018-05-24T21:15:08.462Z,99.90
2018-05-24T21:17:34.627Z,99.90
2018-05-24T21:20:00.830Z,99.90
2018-05-24T21:22:27.026Z,99.90
2018-05-24T21:24:54.621Z,99.90
2018-05-24T21:27:20.852Z,99.90
2018-05-24T21:29:47.862Z,99.90
2018-05-24T21:32:14.068Z,99.90
2018-05-24T21:34:40.283Z,99.90
2018-05-24T21:37:08.314Z,99.90
2018-05-24T21:39:34.518Z,99.90
2018-05-24T21:42:01.895Z,99.90
2018-05-24T21:44:28.503Z,99.90
2018-05-24T21:46:55.001Z,99.90
2018-05-24T21:49:21.353Z,99.90
2018-05-24T21:51:47.528Z,99.90
2018-05-24T21:54:13.694Z,99.90
2018-05-24T21:56:40.991Z,99.90
2018-05-24T21:59:07.435Z,99.90
2018-05-24T22:01:33.688Z,99.90
2018-05-24T22:03:59.935Z,99.90
2018-05-24T22:06:26.167Z,99.90
2018-05-24T22:08:52.383Z,99.90
2018-05-24T22:11:19.776Z,99.90
2018-05-24T22:13:46.035Z,99.90
2018-05-24T22:16:12.460Z,99.90
2018-05-24T22:18:38.726Z,99.90
2018-05-24T22:21:04.947Z,99.90
2018-05-24T22:23:31.204Z,99.90
2018-05-24T22:25:57.559Z,99.90
2018-05-24T22:28:23.801Z,99.90
2018-05-24T22:30:49.974Z,99.90
2018-05-24T22:33:16.165Z,99.90
2018-05-24T22:35:42.404Z,99.90
2018-05-24T22:38:08.622Z,99.90
2018-05-24T22:43:02.726Z,99.90
2018-05-24T22:45:30.222Z,99.90
2018-05-24T22:47:56.431Z,99.90
2018-05-24T22:50:22.629Z,99.90
2018-05-24T22:52:48.974Z,99.90
2018-05-24T22:55:15.181Z,99.90
2018-05-24T23:00:09.398Z,99.90
2018-05-24T23:02:36.685Z,99.90
2018-05-24T23:05:02.900Z,99.90
2018-05-24T23:07:29.059Z,99.90
2018-05-24T23:09:55.243Z,99.90
2018-05-24T23:12:21.415Z,99.90
2018-05-24T23:14:47.591Z,99.90
2018-05-24T23:17:13.804Z,99.90
2018-05-24T23:19:41.114Z,99.90
2018-05-24T23:22:07.305Z,99.90
2018-05-24T23:24:33.506Z,99.90
2018-05-24T23:26:59.705Z,99.90
2018-05-24T23:29:25.873Z,99.90
2018-05-24T23:31:52.065Z,99.90
2018-05-24T23:34:18.242Z,99.90
2018-05-24T23:36:44.419Z,99.90
2018-05-24T23:39:10.607Z,99.90
2018-05-24T23:41:36.835Z,99.90
2018-05-24T23:44:03.138Z,99.90
2018-05-24T23:46:29.336Z,99.90
2018-05-24T23:48:55.510Z,99.90
2018-05-24T23:51:21.754Z,99.90
2018-05-24T23:53:47.930Z,99.90
2018-05-24T23:56:14.099Z,99.90
2018-05-24T23:58:40.262Z,99.90
